createdAt,value
2022-11-19T00:01:29.297Z,40.78
2022-11-19T00:03:56.751Z,41.60
2022-11-19T00:06:26.120Z,41.05
2022-11-19T00:08:53.856Z,39.85
2022-11-19T00:11:23.691Z,39.80
2022-11-19T00:13:50.953Z,40.10
2022-11-19T00:16:20.179Z,43.15
2022-11-19T00:18:47.498Z,38.78
2022-11-19T00:21:14.473Z,39.25
2022-11-19T00:23:44.317Z,36.60
2022-11-19T00:26:15.255Z,38.78
2022-11-19T00:28:43.898Z,37.47
2022-11-19T00:31:13.135Z,36.00
2022-11-19T00:33:44.922Z,40.58
2022-11-19T00:36:15.324Z,37.80
2022-11-19T00:38:43.418Z,41.13
2022-11-19T00:41:10.426Z,39.50
2022-11-19T00:43:38.148Z,38.85
2022-11-19T00:46:06.150Z,39.08
2022-11-19T00:48:33.490Z,40.15
2022-11-19T00:51:00.617Z,36.47
2022-11-19T00:53:28.070Z,36.13
2022-11-19T00:55:55.088Z,37.42
2022-11-19T00:58:24.845Z,38.58
2022-11-19T01:00:51.980Z,35.42
2022-11-19T01:03:19.490Z,38.05
2022-11-19T01:05:48.704Z,33.47
2022-11-19T01:08:19.340Z,32.58
2022-11-19T01:10:46.399Z,32.55
2022-11-19T01:13:18.187Z,31.58
2022-11-19T01:15:49.028Z,30.77
2022-11-19T01:18:19.467Z,31.48
2022-11-19T01:20:47.406Z,31.77
2022-11-19T01:23:17.367Z,33.28
2022-11-19T01:25:44.375Z,31.30
2022-11-19T01:28:11.835Z,34.97
2022-11-19T01:30:44.963Z,31.83
2022-11-19T01:33:12.504Z,27.80
2022-11-19T01:35:39.485Z,32.78
2022-11-19T01:38:09.526Z,30.13
2022-11-19T01:40:46.279Z,26.83
2022-11-19T01:43:16.379Z,29.67
2022-11-19T01:45:49.929Z,30.35
2022-11-19T01:48:34.581Z,26.52
2022-11-19T01:51:12.513Z,30.20
2022-11-19T01:53:40.580Z,29.27
2022-11-19T01:56:09.126Z,32.88
2022-11-19T01:58:44.148Z,30.02
2022-11-19T02:01:11.741Z,29.92
2022-11-19T02:03:42.625Z,29.42
2022-11-19T02:06:12.779Z,25.48
2022-11-19T02:08:42.148Z,27.70
2022-11-19T02:11:09.104Z,27.33
2022-11-19T02:13:52.589Z,25.95
2022-11-19T02:16:36.393Z,31.87
2022-11-19T02:19:25.603Z,27.08
2022-11-19T02:22:01.861Z,27.90
2022-11-19T02:24:54.704Z,26.15
2022-11-19T02:27:59.175Z,29.65
2022-11-19T02:30:33.815Z,25.00
2022-11-19T02:33:35.929Z,25.80
2022-11-19T02:36:18.246Z,25.02
2022-11-19T02:38:59.175Z,25.45
2022-11-19T02:41:46.945Z,25.83
2022-11-19T02:44:21.180Z,23.02
2022-11-19T02:46:53.136Z,25.35
2022-11-19T02:49:26.277Z,24.58
2022-11-19T02:51:54.355Z,24.63
2022-11-19T02:54:21.469Z,24.60
2022-11-19T02:56:54.251Z,24.33
2022-11-19T02:59:44.236Z,25.15
2022-11-19T03:02:14.866Z,26.48
2022-11-19T03:04:42.312Z,25.13
2022-11-19T03:07:18.366Z,25.70
2022-11-19T03:10:02.973Z,23.23
2022-11-19T03:12:45.268Z,27.45
2022-11-19T03:15:41.950Z,26.77
2022-11-19T03:18:32.897Z,22.90
2022-11-19T03:21:19.257Z,23.98
2022-11-19T03:24:01.385Z,23.40
2022-11-19T03:26:41.516Z,23.85
2022-11-19T03:29:12.664Z,25.08
2022-11-19T03:31:46.897Z,27.45
2022-11-19T03:34:19.508Z,23.48
2022-11-19T03:36:49.571Z,23.27
2022-11-19T03:39:19.510Z,25.30
2022-11-19T03:41:51.521Z,23.60
2022-11-19T03:44:25.626Z,25.88
2022-11-19T03:46:59.508Z,26.13
2022-11-19T03:49:34.602Z,23.70
2022-11-19T03:52:13.819Z,24.45
2022-11-19T03:54:42.394Z,25.15
2022-11-19T03:57:12.443Z,26.27
2022-11-19T03:59:39.900Z,24.48
2022-11-19T04:02:09.609Z,25.73
2022-11-19T04:04:37.988Z,26.48
2022-11-19T04:07:10.335Z,26.35
2022-11-19T04:09:38.850Z,27.10
2022-11-19T04:12:07.756Z,26.33
2022-11-19T04:14:35.195Z,24.55
2022-11-19T04:17:04.848Z,25.38
2022-11-19T04:19:32.136Z,26.58
2022-11-19T04:21:59.250Z,24.33
2022-11-19T04:24:26.736Z,24.02
2022-11-19T04:26:53.764Z,25.70
2022-11-19T04:29:21.432Z,23.90
2022-11-19T04:31:51.047Z,27.83
2022-11-19T04:34:18.389Z,24.55
2022-11-19T04:36:47.846Z,24.70
2022-11-19T04:39:15.375Z,24.15
2022-11-19T04:41:42.467Z,23.58
2022-11-19T04:44:09.919Z,24.80
2022-11-19T04:46:37.053Z,28.27
2022-11-19T04:49:04.464Z,27.42
2022-11-19T04:51:31.779Z,24.80
2022-11-19T04:54:01.578Z,25.95
2022-11-19T04:56:31.035Z,24.67
2022-11-19T04:58:58.576Z,28.52
2022-11-19T05:01:28.311Z,27.55
2022-11-19T05:03:55.732Z,27.67
2022-11-19T05:06:25.035Z,26.27
2022-11-19T05:08:52.510Z,25.10
2022-11-19T05:11:19.611Z,29.23
2022-11-19T05:13:47.214Z,27.75
2022-11-19T05:16:14.410Z,27.58
2022-11-19T05:18:41.877Z,27.35
2022-11-19T05:21:09.199Z,27.25
2022-11-19T05:23:36.848Z,29.17
2022-11-19T05:26:06.489Z,30.48
2022-11-19T05:28:39.923Z,29.60
2022-11-19T05:31:08.782Z,27.10
2022-11-19T05:33:36.237Z,29.55
2022-11-19T05:36:06.288Z,26.17
2022-11-19T05:38:35.939Z,28.05
2022-11-19T05:41:03.002Z,27.02
2022-11-19T05:43:30.561Z,27.35
2022-11-19T05:46:01.124Z,26.00
2022-11-19T05:48:29.102Z,28.65
2022-11-19T05:50:56.352Z,29.15
2022-11-19T05:53:23.768Z,27.60
2022-11-19T05:55:53.040Z,26.42
2022-11-19T05:58:20.347Z,28.20
2022-11-19T06:00:47.967Z,28.65
2022-11-19T06:03:17.790Z,27.63
2022-11-19T06:05:44.971Z,27.80
2022-11-19T06:08:12.321Z,31.50
2022-11-19T06:10:44.281Z,27.98
2022-11-19T06:13:11.738Z,28.15
2022-11-19T06:15:41.055Z,27.77
2022-11-19T06:18:10.845Z,28.58
2022-11-19T06:20:37.920Z,27.20
2022-11-19T06:23:05.309Z,27.48
2022-11-19T06:25:32.476Z,27.50
2022-11-19T06:27:59.914Z,27.75
2022-11-19T06:30:27.040Z,26.73
2022-11-19T06:32:54.439Z,24.92
2022-11-19T06:35:21.568Z,25.65
2022-11-19T06:37:51.327Z,27.83
2022-11-19T06:40:18.413Z,31.25
2022-11-19T06:42:51.180Z,31.00
2022-11-19T06:45:18.788Z,33.20
2022-11-19T06:47:48.240Z,28.38
2022-11-19T06:50:15.268Z,29.30
2022-11-19T06:52:47.815Z,32.22
2022-11-19T06:55:15.096Z,29.23
2022-11-19T06:57:42.620Z,27.83
2022-11-19T07:00:10.866Z,23.50
2022-11-19T07:02:38.146Z,24.83
2022-11-19T07:05:05.593Z,25.30
2022-11-19T07:07:34.186Z,25.60
2022-11-19T07:10:01.565Z,25.83
2022-11-19T07:12:29.015Z,27.38
2022-11-19T07:15:01.119Z,29.52
2022-11-19T07:17:31.416Z,33.28
2022-11-19T07:19:59.145Z,38.58
2022-11-19T07:22:29.038Z,33.33
2022-11-19T07:24:56.015Z,37.45
2022-11-19T07:27:23.548Z,40.03
2022-11-19T07:29:50.528Z,45.42
2022-11-19T07:32:17.888Z,55.17
2022-11-19T07:34:45.267Z,53.33
2022-11-19T07:37:12.614Z,51.35
2022-11-19T07:39:39.632Z,44.67
2022-11-19T07:42:08.156Z,44.47
2022-11-19T07:44:35.150Z,38.13
2022-11-19T07:47:02.526Z,42.47
2022-11-19T07:49:32.190Z,46.17
2022-11-19T07:52:04.143Z,40.58
2022-11-19T07:54:31.429Z,40.00
2022-11-19T07:57:01.145Z,39.28
2022-11-19T07:59:30.419Z,36.40
2022-11-19T08:01:58.092Z,35.85
2022-11-19T08:04:28.350Z,38.33
2022-11-19T08:06:56.160Z,36.67
2022-11-19T08:09:27.953Z,40.85
2022-11-19T08:11:55.268Z,40.03
2022-11-19T08:14:22.465Z,43.33
2022-11-19T08:16:50.116Z,43.30
2022-11-19T08:19:17.848Z,42.42
2022-11-19T08:21:46.928Z,47.08
2022-11-19T08:24:15.868Z,47.70
2022-11-19T08:26:43.567Z,41.58
2022-11-19T08:29:16.629Z,36.35
2022-11-19T08:31:47.940Z,32.58
2022-11-19T08:34:16.244Z,27.50
2022-11-19T08:36:43.918Z,23.73
2022-11-19T08:39:11.591Z,19.42
2022-11-19T08:41:38.870Z,15.32
2022-11-19T08:44:08.502Z,12.63
2022-11-19T08:46:37.321Z,11.80
2022-11-19T08:49:04.617Z,13.25
2022-11-19T08:51:32.296Z,13.15
2022-11-19T08:53:59.509Z,11.45
2022-11-19T08:56:26.984Z,13.05
2022-11-19T08:58:58.516Z,14.23
2022-11-19T09:01:31.450Z,12.65
2022-11-19T09:03:58.958Z,15.32
2022-11-19T09:06:26.289Z,16.02
2022-11-19T09:08:53.489Z,22.50
2022-11-19T09:11:21.571Z,27.67
2022-11-19T09:13:50.916Z,26.83
2022-11-19T09:16:22.949Z,26.20
2022-11-19T09:18:52.638Z,28.05
2022-11-19T09:21:22.496Z,28.98
2022-11-19T09:23:54.217Z,28.55
2022-11-19T09:26:21.608Z,14.57
2022-11-19T09:28:50.819Z,12.52
2022-11-19T09:31:23.660Z,12.32
2022-11-19T09:33:52.633Z,10.93
2022-11-19T09:36:20.352Z,10.57
2022-11-19T09:38:49.855Z,11.40
2022-11-19T09:41:40.920Z,10.68
2022-11-19T09:44:17.013Z,10.98
2022-11-19T09:46:54.885Z,10.93
2022-11-19T09:49:36.569Z,10.00
2022-11-19T09:52:07.609Z,11.13
2022-11-19T09:54:35.705Z,11.32
2022-11-19T09:57:12.018Z,11.15
2022-11-19T09:59:40.862Z,10.23
2022-11-19T10:02:20.697Z,12.23
2022-11-19T10:04:50.315Z,10.63
2022-11-19T10:07:20.893Z,12.45
2022-11-19T10:10:05.383Z,10.43
2022-11-19T10:13:07.615Z,11.70
2022-11-19T10:15:46.922Z,9.57
2022-11-19T10:18:40.078Z,10.40
2022-11-19T10:24:22.112Z,11.98
2022-11-19T10:27:05.700Z,12.55
2022-11-19T10:29:39.880Z,12.00
2022-11-19T10:32:26.341Z,16.50
2022-11-19T10:35:02.240Z,14.77
2022-11-19T10:37:38.917Z,16.13
2022-11-19T10:40:16.644Z,15.25
2022-11-19T10:42:52.269Z,17.02
2022-11-19T10:45:21.837Z,14.65
2022-11-19T10:48:09.394Z,14.75
2022-11-19T10:50:42.122Z,12.93
2022-11-19T10:53:41.801Z,13.33
2022-11-19T10:56:18.377Z,29.08
2022-11-19T10:58:58.135Z,13.35
2022-11-19T11:01:38.010Z,11.77
2022-11-19T11:04:13.320Z,9.88
2022-11-19T11:07:01.055Z,8.85
2022-11-19T11:09:32.136Z,11.02
2022-11-19T11:12:04.875Z,10.95
2022-11-19T11:14:34.446Z,9.52
2022-11-19T11:17:05.424Z,12.57
2022-11-19T11:19:33.482Z,10.43
2022-11-19T11:22:03.422Z,12.27
2022-11-19T11:24:37.944Z,12.48
2022-11-19T11:27:35.658Z,15.82
2022-11-19T11:30:25.808Z,13.63
2022-11-19T11:32:53.530Z,12.25
2022-11-19T11:35:37.372Z,12.15
2022-11-19T11:38:05.754Z,13.30
2022-11-19T11:40:35.443Z,15.45
2022-11-19T11:43:05.048Z,13.27
2022-11-19T11:45:35.014Z,15.77
2022-11-19T11:48:17.840Z,15.68
2022-11-19T11:50:48.366Z,15.95
2022-11-19T11:53:27.167Z,15.05
2022-11-19T11:55:59.644Z,16.33
2022-11-19T11:58:26.990Z,16.55
2022-11-19T12:01:16.037Z,15.23
2022-11-19T12:03:55.946Z,16.60
2022-11-19T12:06:26.451Z,13.15
2022-11-19T12:08:53.794Z,15.05
2022-11-19T12:11:57.905Z,13.90
2022-11-19T12:14:51.706Z,13.05
2022-11-19T12:17:30.881Z,11.57
2022-11-19T12:20:16.571Z,12.77
2022-11-19T12:23:01.224Z,14.10
2022-11-19T12:25:34.613Z,13.23
2022-11-19T12:28:26.022Z,16.53
2022-11-19T12:31:05.394Z,14.00
2022-11-19T12:33:47.512Z,14.98
2022-11-19T12:36:36.160Z,13.73
2022-11-19T12:39:29.574Z,14.13
2022-11-19T12:42:08.347Z,18.10
2022-11-19T12:44:50.031Z,14.35
2022-11-19T12:47:26.581Z,13.35
2022-11-19T12:50:05.572Z,14.70
2022-11-19T12:52:35.634Z,14.30
2022-11-19T12:55:30.506Z,15.75
2022-11-19T12:58:32.476Z,15.27
2022-11-19T13:01:03.889Z,14.90
2022-11-19T13:03:46.763Z,17.38
2022-11-19T13:06:27.366Z,17.02
2022-11-19T13:09:02.157Z,19.75
2022-11-19T13:11:42.994Z,16.88
2022-11-19T13:14:28.622Z,14.55
2022-11-19T13:16:59.855Z,15.20
2022-11-19T13:19:31.378Z,19.35
2022-11-19T13:22:19.349Z,18.60
2022-11-19T13:24:53.098Z,13.90
2022-11-19T13:27:26.882Z,16.30
2022-11-19T13:30:05.254Z,18.67
2022-11-19T13:32:38.670Z,18.38
2022-11-19T13:37:47.000Z,21.92
2022-11-19T13:40:21.297Z,20.73
2022-11-19T13:45:39.616Z,22.17
2022-11-19T13:48:21.410Z,19.27
2022-11-19T13:50:52.020Z,24.48
2022-11-19T13:53:45.101Z,27.20
2022-11-19T13:56:18.269Z,30.90
2022-11-19T13:58:54.070Z,31.52
2022-11-19T14:01:49.579Z,25.10
2022-11-19T14:04:35.690Z,28.75
2022-11-19T14:07:16.033Z,27.58
2022-11-19T14:10:20.537Z,28.67
2022-11-19T14:13:09.299Z,32.75
2022-11-19T14:15:54.953Z,31.70
2022-11-19T14:18:22.445Z,34.65
2022-11-19T14:20:51.741Z,38.13
2022-11-19T14:23:47.741Z,34.85
2022-11-19T14:26:40.807Z,36.38
2022-11-19T14:29:26.203Z,38.42
2022-11-19T14:32:02.487Z,37.42
2022-11-19T14:34:41.691Z,37.40
2022-11-19T14:37:19.255Z,37.42
2022-11-19T14:39:52.126Z,38.50
2022-11-19T14:42:23.517Z,42.10
2022-11-19T14:45:02.912Z,38.50
2022-11-19T14:47:34.294Z,38.72
2022-11-19T14:50:24.097Z,39.10
2022-11-19T14:52:55.931Z,41.60
2022-11-19T14:55:33.920Z,46.25
2022-11-19T14:58:07.453Z,49.95
2022-11-19T15:00:37.904Z,45.80
2022-11-19T15:03:13.662Z,42.80
2022-11-19T15:05:46.241Z,47.35
2022-11-19T15:08:19.531Z,39.10
2022-11-19T15:10:46.652Z,44.25
2022-11-19T15:13:28.300Z,41.95
2022-11-19T15:15:58.474Z,40.85
2022-11-19T15:18:43.153Z,40.65
2022-11-19T15:21:37.724Z,38.33
2022-11-19T15:24:26.021Z,36.87
2022-11-19T15:27:01.894Z,34.42
2022-11-19T15:29:59.895Z,38.22
2022-11-19T15:32:58.407Z,38.33
2022-11-19T15:35:44.279Z,36.75
2022-11-19T15:38:19.926Z,31.77
2022-11-19T15:41:04.185Z,36.15
2022-11-19T15:43:39.896Z,33.72
2022-11-19T15:46:50.432Z,35.70
2022-11-19T15:49:23.141Z,32.83
2022-11-19T15:52:18.528Z,37.83
2022-11-19T15:54:45.748Z,35.35
2022-11-19T15:58:00.370Z,35.67
2022-11-19T16:00:27.652Z,36.08
2022-11-19T16:02:55.515Z,37.45
2022-11-19T16:05:22.579Z,39.40
2022-11-19T16:07:51.832Z,38.90
2022-11-19T16:10:30.689Z,36.83
2022-11-19T16:13:04.404Z,41.78
2022-11-19T16:15:31.489Z,44.80
2022-11-19T16:17:58.789Z,42.92
2022-11-19T16:20:26.151Z,37.33
2022-11-19T16:23:10.477Z,40.00
2022-11-19T16:25:42.119Z,41.63
2022-11-19T16:28:23.772Z,41.97
2022-11-19T16:30:54.356Z,39.78
2022-11-19T16:33:27.217Z,40.05
2022-11-19T16:36:10.970Z,49.38
2022-11-19T16:38:40.870Z,44.50
2022-11-19T16:41:10.493Z,41.55
2022-11-19T16:43:38.527Z,48.33
2022-11-19T16:46:06.549Z,46.47
2022-11-19T16:48:54.106Z,44.80
2022-11-19T16:51:53.928Z,41.70
2022-11-19T16:54:52.594Z,36.80
2022-11-19T16:57:25.301Z,36.55
2022-11-19T16:59:59.513Z,37.28
2022-11-19T17:02:40.662Z,40.70
2022-11-19T17:05:16.696Z,40.92
2022-11-19T17:07:48.762Z,41.03
2022-11-19T17:10:18.721Z,43.20
2022-11-19T17:12:55.815Z,45.70
2022-11-19T17:15:38.381Z,44.22
2022-11-19T17:18:32.722Z,43.60
2022-11-19T17:21:06.910Z,34.15
2022-11-19T17:23:45.892Z,45.85
2022-11-19T17:26:18.467Z,45.45
2022-11-19T17:28:49.943Z,43.90
2022-11-19T17:31:26.787Z,45.58
2022-11-19T17:34:04.714Z,45.17
2022-11-19T17:36:33.099Z,42.15
2022-11-19T17:39:00.488Z,44.47
2022-11-19T17:41:29.178Z,49.08
2022-11-19T17:43:56.515Z,48.50
2022-11-19T17:46:29.259Z,44.08
2022-11-19T17:48:56.774Z,46.03
2022-11-19T17:51:25.467Z,43.58
2022-11-19T17:53:53.432Z,47.10
2022-11-19T17:56:30.243Z,42.47
2022-11-19T17:58:57.714Z,47.28
2022-11-19T18:01:24.972Z,43.58
2022-11-19T18:03:52.492Z,47.00
2022-11-19T18:06:19.647Z,45.05
2022-11-19T18:08:47.210Z,44.70
2022-11-19T18:11:22.560Z,45.90
2022-11-19T18:13:54.637Z,42.28
2022-11-19T18:16:24.495Z,46.28
2022-11-19T18:18:51.994Z,44.58
2022-11-19T18:21:22.793Z,51.97
2022-11-19T18:23:51.942Z,51.78
2022-11-19T18:26:21.075Z,51.00
2022-11-19T18:28:49.257Z,41.83
2022-11-19T18:31:24.229Z,36.83
2022-11-19T18:33:55.068Z,38.22
2022-11-19T18:36:25.149Z,38.72
2022-11-19T18:38:53.269Z,41.10
2022-11-19T18:41:25.136Z,41.33
2022-11-19T18:43:52.615Z,42.13
2022-11-19T18:46:20.025Z,41.35
2022-11-19T18:48:47.471Z,41.67
2022-11-19T18:51:14.688Z,42.50
2022-11-19T18:53:42.302Z,39.55
2022-11-19T18:56:15.101Z,37.65
2022-11-19T18:58:43.010Z,39.17
2022-11-19T19:01:12.480Z,36.42
2022-11-19T19:03:39.880Z,36.33
2022-11-19T19:06:08.878Z,37.22
2022-11-19T19:08:36.730Z,37.83
2022-11-19T19:11:06.937Z,40.95
2022-11-19T19:13:39.188Z,39.20
2022-11-19T19:16:06.420Z,34.63
2022-11-19T19:18:33.691Z,38.72
2022-11-19T19:21:01.058Z,35.65
2022-11-19T19:23:31.691Z,34.40
2022-11-19T19:25:58.817Z,34.90
2022-11-19T19:28:28.751Z,28.25
2022-11-19T19:30:59.259Z,33.05
2022-11-19T19:33:27.208Z,31.77
2022-11-19T19:35:56.734Z,35.13
2022-11-19T19:38:26.236Z,30.75
2022-11-19T19:41:02.273Z,31.65
2022-11-19T19:43:30.463Z,33.40
2022-11-19T19:46:03.761Z,33.10
2022-11-19T19:48:35.009Z,31.05
2022-11-19T19:51:04.488Z,31.20
2022-11-19T19:53:36.449Z,32.60
2022-11-19T19:56:30.479Z,33.47
2022-11-19T19:59:01.462Z,38.28
2022-11-19T20:01:31.011Z,32.05
2022-11-19T20:04:02.595Z,29.35
2022-11-19T20:06:30.047Z,33.10
2022-11-19T20:08:57.388Z,33.67
2022-11-19T20:11:25.847Z,30.63
2022-11-19T20:13:55.356Z,31.55
2022-11-19T20:16:32.974Z,31.63
2022-11-19T20:19:01.672Z,32.35
2022-11-19T20:21:31.341Z,30.77
2022-11-19T20:23:58.692Z,31.52
2022-11-19T20:26:29.093Z,31.60
2022-11-19T20:29:06.025Z,32.63
2022-11-19T20:31:34.308Z,38.83
2022-11-19T20:34:04.387Z,41.58
2022-11-19T20:36:35.641Z,33.65
2022-11-19T20:39:04.251Z,32.10
2022-11-19T20:41:31.453Z,33.78
2022-11-19T20:44:02.566Z,36.17
2022-11-19T20:46:29.759Z,29.65
2022-11-19T20:48:57.355Z,35.38
2022-11-19T20:51:26.866Z,32.92
2022-11-19T20:53:54.396Z,34.92
2022-11-19T20:56:23.630Z,35.00
2022-11-19T20:58:53.436Z,38.33
2022-11-19T21:01:20.802Z,38.45
2022-11-19T21:03:48.240Z,39.67
2022-11-19T21:06:20.171Z,40.00
2022-11-19T21:08:47.665Z,43.13
2022-11-19T21:11:17.372Z,41.83
2022-11-19T21:13:46.942Z,43.03
2022-11-19T21:16:25.597Z,46.00
2022-11-19T21:18:53.261Z,41.10
2022-11-19T21:21:23.398Z,37.05
2022-11-19T21:23:51.336Z,40.63
2022-11-19T21:26:25.689Z,36.15
2022-11-19T21:28:57.637Z,38.22
2022-11-19T21:31:36.999Z,36.00
2022-11-19T21:34:10.133Z,34.58
2022-11-19T21:36:41.202Z,34.67
2022-11-19T21:39:10.690Z,36.58
2022-11-19T21:41:38.205Z,34.58
2022-11-19T21:44:06.729Z,33.00
2022-11-19T21:46:34.241Z,35.35
2022-11-19T21:49:04.849Z,34.75
2022-11-19T21:51:32.226Z,30.08
2022-11-19T21:54:02.372Z,30.52
2022-11-19T21:56:32.497Z,29.90
2022-11-19T21:59:04.574Z,27.27
2022-11-19T22:01:40.370Z,29.84
2022-11-19T22:04:10.648Z,32.55
2022-11-19T22:06:37.671Z,31.63
2022-11-19T22:09:05.323Z,30.80
2022-11-19T22:11:32.613Z,30.52
2022-11-19T22:14:06.432Z,31.33
2022-11-19T22:16:36.071Z,34.63
2022-11-19T22:19:06.859Z,31.27
2022-11-19T22:21:34.364Z,34.80
2022-11-19T22:24:04.593Z,32.75
2022-11-19T22:26:32.120Z,35.90
2022-11-19T22:28:59.546Z,33.15
2022-11-19T22:31:31.310Z,35.17
2022-11-19T22:34:03.129Z,33.15
2022-11-19T22:36:31.343Z,31.75
2022-11-19T22:38:59.013Z,29.92
2022-11-19T22:41:26.182Z,30.60
2022-11-19T22:43:58.446Z,30.77
2022-11-19T22:46:25.486Z,29.75
2022-11-19T22:48:52.779Z,30.83
2022-11-19T22:51:26.058Z,32.22
2022-11-19T22:53:54.703Z,31.13
2022-11-19T22:56:27.609Z,29.83
2022-11-19T22:58:58.172Z,34.13
2022-11-19T23:01:29.701Z,33.22
2022-11-19T23:04:01.008Z,31.15
2022-11-19T23:06:28.697Z,31.60
2022-11-19T23:08:58.565Z,31.63
2022-11-19T23:11:29.047Z,30.30
2022-11-19T23:13:56.535Z,27.70
2022-11-19T23:16:23.533Z,32.33
2022-11-19T23:18:52.674Z,32.08
2022-11-19T23:21:25.822Z,30.98
2022-11-19T23:23:53.781Z,32.70
2022-11-19T23:26:23.615Z,35.42
2022-11-19T23:28:51.993Z,31.15
2022-11-19T23:31:26.388Z,37.33
2022-11-19T23:33:58.741Z,35.63
2022-11-19T23:36:26.441Z,32.00
2022-11-19T23:38:53.869Z,32.85
2022-11-19T23:41:22.197Z,33.40
2022-11-19T23:43:49.936Z,32.15
2022-11-19T23:46:19.920Z,31.63
2022-11-19T23:48:49.020Z,30.83
2022-11-19T23:51:22.235Z,32.53
2022-11-19T23:53:50.252Z,34.10
2022-11-19T23:56:18.695Z,33.28
2022-11-19T23:58:46.393Z,33.42
